createdAt,value
2019-05-05T00:02:30.566Z,7.58
2019-05-05T00:05:04.928Z,7.30
2019-05-05T00:07:36.583Z,7.62
2019-05-05T00:10:10.655Z,7.90
2019-05-05T00:12:46.421Z,7.50
2019-05-05T00:15:28.453Z,7.80
2019-05-05T00:18:00.260Z,8.30
2019-05-05T00:20:31.385Z,8.63
2019-05-05T00:23:02.694Z,8.48
2019-05-05T00:25:34.320Z,7.85
2019-05-05T00:28:08.211Z,8.85
2019-05-05T00:30:39.659Z,8.58
2019-05-05T00:33:14.479Z,8.40
2019-05-05T00:35:45.900Z,7.58
2019-05-05T00:38:17.312Z,7.42
2019-05-05T00:40:49.083Z,7.97
2019-05-05T00:43:21.726Z,7.83
2019-05-05T00:45:56.360Z,7.78
2019-05-05T00:48:31.780Z,8.08
2019-05-05T00:51:04.646Z,7.65
2019-05-05T00:53:36.156Z,8.45
2019-05-05T00:56:07.547Z,8.18
2019-05-05T00:58:41.557Z,8.63
2019-05-05T01:01:34.306Z,9.28
2019-05-05T01:04:07.182Z,8.83
2019-05-05T01:06:38.429Z,9.78
2019-05-05T01:09:11.240Z,8.95
2019-05-05T01:11:44.646Z,8.93
2019-05-05T01:14:17.227Z,9.03
2019-05-05T01:16:48.542Z,9.35
2019-05-05T01:19:24.303Z,9.53
2019-05-05T01:21:55.882Z,10.30
2019-05-05T01:24:30.121Z,9.60
2019-05-05T01:27:01.319Z,10.05
2019-05-05T01:29:34.657Z,10.58
2019-05-05T01:32:07.644Z,9.90
2019-05-05T01:34:41.215Z,10.30
2019-05-05T01:37:16.597Z,10.28
2019-05-05T01:39:50.032Z,11.12
2019-05-05T01:42:22.224Z,11.20
2019-05-05T01:44:55.301Z,12.47
2019-05-05T01:47:29.163Z,12.73
2019-05-05T01:50:08.220Z,13.90
2019-05-05T01:52:34.445Z,14.00
2019-05-05T01:55:06.618Z,14.58
2019-05-05T01:57:37.981Z,16.00
2019-05-05T02:00:10.023Z,16.23
2019-05-05T02:02:44.731Z,16.37
2019-05-05T02:05:20.357Z,18.77
2019-05-05T02:07:55.148Z,18.70
2019-05-05T02:10:29.389Z,20.87
2019-05-05T02:13:00.656Z,20.45
2019-05-05T02:15:34.179Z,21.75
2019-05-05T02:18:04.949Z,21.65
2019-05-05T02:20:54.426Z,21.93
2019-05-05T02:23:26.843Z,22.73
2019-05-05T02:25:58.605Z,23.52
2019-05-05T02:28:31.550Z,23.25
2019-05-05T02:31:06.279Z,22.00
2019-05-05T02:33:37.999Z,23.40
2019-05-05T02:36:09.363Z,23.62
2019-05-05T02:38:40.699Z,25.15
2019-05-05T02:41:15.303Z,24.15
2019-05-05T02:43:45.329Z,25.35
2019-05-05T02:46:25.545Z,26.55
2019-05-05T02:48:56.989Z,27.73
2019-05-05T02:51:28.346Z,27.93
2019-05-05T02:54:04.273Z,28.52
2019-05-05T02:56:43.729Z,27.17
2019-05-05T02:59:16.870Z,28.10
2019-05-05T03:01:53.965Z,27.82
2019-05-05T03:04:26.399Z,27.90
2019-05-05T03:06:57.645Z,27.90
2019-05-05T03:09:28.904Z,25.35
2019-05-05T03:12:04.763Z,22.48
2019-05-05T03:14:37.354Z,21.85
2019-05-05T03:17:14.249Z,20.25
2019-05-05T03:19:47.671Z,20.40
2019-05-05T03:22:20.164Z,19.52
2019-05-05T03:24:54.115Z,18.82
2019-05-05T03:27:27.997Z,17.20
2019-05-05T03:30:00.584Z,17.60
2019-05-05T03:32:32.014Z,17.73
2019-05-05T03:35:04.319Z,18.57
2019-05-05T03:37:36.743Z,18.45
2019-05-05T03:40:09.594Z,18.70
2019-05-05T03:42:48.400Z,18.95
2019-05-05T03:45:25.348Z,18.02
2019-05-05T03:47:56.606Z,18.80
2019-05-05T03:50:27.814Z,18.27
2019-05-05T03:52:59.055Z,17.17
2019-05-05T03:55:34.449Z,17.10
2019-05-05T03:58:07.300Z,17.40
2019-05-05T04:00:54.801Z,17.40
2019-05-05T04:03:26.479Z,18.12
2019-05-05T04:05:59.464Z,17.32
2019-05-05T04:08:33.776Z,17.57
2019-05-05T04:11:05.094Z,17.05
2019-05-05T04:13:36.482Z,16.00
2019-05-05T04:16:20.612Z,15.00
2019-05-05T04:18:55.030Z,14.35
2019-05-05T04:21:33.571Z,13.55
2019-05-05T04:24:01.312Z,13.08
2019-05-05T04:26:33.538Z,13.22
2019-05-05T04:29:06.728Z,12.25
2019-05-05T04:31:38.128Z,13.05
2019-05-05T04:34:10.066Z,12.07
2019-05-05T04:36:41.342Z,11.83
2019-05-05T04:39:14.516Z,13.00
2019-05-05T04:41:45.941Z,11.73
2019-05-05T04:44:18.075Z,12.58
2019-05-05T04:46:54.464Z,12.15
2019-05-05T04:49:44.497Z,12.75
2019-05-05T04:52:17.730Z,11.28
2019-05-05T04:54:52.452Z,11.63
2019-05-05T04:57:25.441Z,11.48
2019-05-05T04:59:57.955Z,11.33
2019-05-05T05:02:34.119Z,10.55
2019-05-05T05:05:14.582Z,11.20
2019-05-05T05:07:48.677Z,10.55
2019-05-05T05:10:20.018Z,10.32
2019-05-05T05:12:53.874Z,10.00
2019-05-05T05:15:25.032Z,9.60
2019-05-05T05:17:58.878Z,9.85
2019-05-05T05:20:30.771Z,9.50
2019-05-05T05:23:06.371Z,8.28
2019-05-05T05:25:37.736Z,8.88
2019-05-05T05:28:10.107Z,8.83
2019-05-05T05:30:45.114Z,8.85
2019-05-05T05:33:20.604Z,8.80
2019-05-05T05:35:54.617Z,8.43
2019-05-05T05:38:26.030Z,9.75
2019-05-05T05:41:07.532Z,8.20
2019-05-05T05:43:44.039Z,9.45
2019-05-05T05:46:26.163Z,7.60
2019-05-05T05:49:04.762Z,7.70
2019-05-05T05:51:37.396Z,7.70
2019-05-05T05:54:08.648Z,8.20
2019-05-05T05:56:39.966Z,9.13
2019-05-05T05:59:11.318Z,7.42
2019-05-05T06:01:43.732Z,8.48
2019-05-05T06:04:15.407Z,7.75
2019-05-05T06:06:49.128Z,8.50
2019-05-05T06:09:25.410Z,8.53
2019-05-05T06:11:56.691Z,8.20
2019-05-05T06:14:29.360Z,7.40
2019-05-05T06:17:01.414Z,8.98
2019-05-05T06:19:33.811Z,6.40
2019-05-05T06:22:07.133Z,6.45
2019-05-05T06:24:38.524Z,6.62
2019-05-05T06:27:09.766Z,7.58
2019-05-05T06:29:44.079Z,6.92
2019-05-05T06:32:15.240Z,6.72
2019-05-05T06:34:46.511Z,6.97
2019-05-05T06:37:17.897Z,7.00
2019-05-05T06:39:50.696Z,7.28
2019-05-05T06:42:34.252Z,6.58
2019-05-05T06:45:09.124Z,6.95
2019-05-05T06:47:44.497Z,6.78
2019-05-05T06:50:21.130Z,7.33
2019-05-05T06:52:57.202Z,7.40
2019-05-05T06:55:28.614Z,7.47
2019-05-05T06:57:59.897Z,7.95
2019-05-05T07:00:34.964Z,8.40
2019-05-05T07:03:07.935Z,8.50
2019-05-05T07:05:39.372Z,7.80
2019-05-05T07:08:11.169Z,8.48
2019-05-05T07:10:44.555Z,8.08
2019-05-05T07:13:36.911Z,7.45
2019-05-05T07:16:12.304Z,6.35
2019-05-05T07:18:44.595Z,6.60
2019-05-05T07:21:16.124Z,6.62
2019-05-05T07:23:47.975Z,6.65
2019-05-05T07:26:19.219Z,5.67
2019-05-05T07:28:54.153Z,5.65
2019-05-05T07:31:26.130Z,5.10
2019-05-05T07:33:57.463Z,4.80
2019-05-05T07:36:34.077Z,5.78
2019-05-05T07:39:07.700Z,4.55
2019-05-05T07:41:40.650Z,4.80
2019-05-05T07:44:23.483Z,5.17
2019-05-05T07:46:44.938Z,5.40
2019-05-05T07:49:16.623Z,4.80
2019-05-05T07:51:48.073Z,5.50
2019-05-05T07:54:19.485Z,5.37
2019-05-05T07:56:53.894Z,4.40
2019-05-05T07:59:25.156Z,4.50
2019-05-05T08:01:56.355Z,5.12
2019-05-05T08:04:27.563Z,4.85
2019-05-05T08:06:58.695Z,3.98
2019-05-05T08:09:30.086Z,4.12
2019-05-05T08:12:01.393Z,3.47
2019-05-05T08:14:33.706Z,3.80
2019-05-05T08:17:24.929Z,3.67
2019-05-05T08:20:04.179Z,3.98
2019-05-05T08:22:35.904Z,3.00
2019-05-05T08:25:11.205Z,3.22
2019-05-05T08:27:50.454Z,3.07
2019-05-05T08:30:41.686Z,2.77
2019-05-05T08:33:14.039Z,2.75
2019-05-05T08:38:27.597Z,3.27
2019-05-05T08:40:59.921Z,2.65
2019-05-05T08:43:31.221Z,2.37
2019-05-05T08:46:04.673Z,2.90
2019-05-05T08:48:36.547Z,3.37
2019-05-05T08:51:07.708Z,2.75
2019-05-05T08:53:44.780Z,3.15
2019-05-05T08:56:11.838Z,2.20
2019-05-05T08:58:43.838Z,1.90
2019-05-05T09:01:15.338Z,2.45
2019-05-05T09:03:47.077Z,3.05
2019-05-05T09:06:18.745Z,2.37
2019-05-05T09:08:52.228Z,2.47
2019-05-05T09:11:24.403Z,2.40
2019-05-05T09:13:56.564Z,2.55
2019-05-05T09:16:27.828Z,2.45
2019-05-05T09:19:00.699Z,2.60
2019-05-05T09:21:34.358Z,2.62
2019-05-05T09:24:18.527Z,2.67
2019-05-05T09:26:51.485Z,2.35
2019-05-05T09:29:24.520Z,2.30
2019-05-05T09:31:55.871Z,2.45
2019-05-05T09:34:27.160Z,2.87
2019-05-05T09:36:58.750Z,2.45
2019-05-05T09:39:30.007Z,2.40
2019-05-05T09:42:01.146Z,2.60
2019-05-05T09:44:34.473Z,1.95
2019-05-05T09:47:06.941Z,2.00
2019-05-05T09:49:39.438Z,2.00
2019-05-05T09:52:10.766Z,2.30
2019-05-05T09:54:43.872Z,2.12
2019-05-05T09:57:16.371Z,2.50
2019-05-05T09:59:48.607Z,3.50
2019-05-05T10:02:20.060Z,2.15
2019-05-05T10:04:51.515Z,2.83
2019-05-05T10:07:24.237Z,2.30
2019-05-05T10:09:56.298Z,2.37
2019-05-05T10:12:29.017Z,2.50
2019-05-05T10:15:07.514Z,2.15
2019-05-05T10:17:39.160Z,2.17
2019-05-05T10:20:10.402Z,2.55
2019-05-05T10:22:43.719Z,2.42
2019-05-05T10:25:34.331Z,2.98
2019-05-05T10:28:05.710Z,2.52
2019-05-05T10:30:36.900Z,3.47
2019-05-05T10:33:08.309Z,2.87
2019-05-05T10:35:39.575Z,2.25
2019-05-05T10:38:10.841Z,2.95
2019-05-05T10:40:44.420Z,2.50
2019-05-05T10:43:15.056Z,2.12
2019-05-05T10:45:46.216Z,2.17
2019-05-05T10:48:17.620Z,2.72
2019-05-05T10:50:49.091Z,2.58
2019-05-05T10:53:20.442Z,2.33
2019-05-05T10:55:53.814Z,2.35
2019-05-05T10:58:24.970Z,2.77
2019-05-05T11:00:57.716Z,2.33
2019-05-05T11:03:29.171Z,2.27
2019-05-05T11:06:00.432Z,2.45
2019-05-05T11:08:31.932Z,2.85
2019-05-05T11:11:04.237Z,2.60
2019-05-05T11:13:36.876Z,3.70
2019-05-05T11:16:08.226Z,2.55
2019-05-05T11:18:41.102Z,1.98
2019-05-05T11:21:14.435Z,2.62
2019-05-05T11:23:45.597Z,2.33
2019-05-05T11:26:17.018Z,3.15
2019-05-05T11:28:48.690Z,2.37
2019-05-05T11:31:19.742Z,2.20
2019-05-05T11:33:54.202Z,2.77
2019-05-05T11:36:27.289Z,3.00
2019-05-05T11:38:58.756Z,2.35
2019-05-05T11:41:30.203Z,4.65
2019-05-05T11:44:04.015Z,5.37
2019-05-05T11:46:36.471Z,2.25
2019-05-05T11:49:07.934Z,2.50
2019-05-05T11:51:39.495Z,3.05
2019-05-05T11:54:10.791Z,3.12
2019-05-05T11:56:44.531Z,2.15
2019-05-05T11:59:15.158Z,2.40
2019-05-05T12:01:46.542Z,2.33
2019-05-05T12:04:19.295Z,1.90
2019-05-05T12:06:51.007Z,2.25
2019-05-05T12:09:24.799Z,1.82
2019-05-05T12:11:56.143Z,2.05
2019-05-05T12:14:29.034Z,2.27
2019-05-05T12:17:04.559Z,2.60
2019-05-05T12:19:35.879Z,2.30
2019-05-05T12:22:07.212Z,2.62
2019-05-05T12:24:40.025Z,2.72
2019-05-05T12:27:14.129Z,2.90
2019-05-05T12:29:48.469Z,3.42
2019-05-05T12:32:19.796Z,2.85
2019-05-05T12:34:51.111Z,3.58
2019-05-05T12:37:23.639Z,3.10
2019-05-05T12:39:55.015Z,3.98
2019-05-05T12:42:27.647Z,3.55
2019-05-05T12:45:00.561Z,3.20
2019-05-05T12:47:50.003Z,3.40
2019-05-05T12:50:21.458Z,3.27
2019-05-05T12:52:54.765Z,3.20
2019-05-05T12:55:38.918Z,3.77
2019-05-05T12:57:58.953Z,2.92
2019-05-05T13:00:30.208Z,2.77
2019-05-05T13:03:04.351Z,2.35
2019-05-05T13:05:35.076Z,3.22
2019-05-05T13:08:06.384Z,2.65
2019-05-05T13:10:37.558Z,2.27
2019-05-05T13:13:08.704Z,2.75
2019-05-05T13:15:39.948Z,2.80
2019-05-05T13:18:11.183Z,2.00
2019-05-05T13:20:44.430Z,2.35
2019-05-05T13:23:34.100Z,2.00
2019-05-05T13:26:07.130Z,1.95
2019-05-05T13:28:38.499Z,2.05
2019-05-05T13:31:09.827Z,2.20
2019-05-05T13:33:41.279Z,2.77
2019-05-05T13:36:13.747Z,2.47
2019-05-05T13:38:45.112Z,2.10
2019-05-05T13:41:16.283Z,1.90
2019-05-05T13:43:47.439Z,2.02
2019-05-05T13:46:20.380Z,1.92
2019-05-05T13:48:53.810Z,2.55
2019-05-05T13:51:24.967Z,2.27
2019-05-05T13:53:56.380Z,2.12
2019-05-05T13:56:28.920Z,2.33
2019-05-05T13:59:00.161Z,2.27
2019-05-05T14:01:34.160Z,2.05
2019-05-05T14:04:05.621Z,2.00
2019-05-05T14:06:37.064Z,1.85
2019-05-05T14:09:08.373Z,2.10
2019-05-05T14:11:41.246Z,1.72
2019-05-05T14:14:13.956Z,1.95
2019-05-05T14:16:45.377Z,1.75
2019-05-05T14:19:17.738Z,1.80
2019-05-05T14:21:48.767Z,1.90
2019-05-05T14:24:22.228Z,1.60
2019-05-05T14:26:55.435Z,1.60
2019-05-05T14:29:37.501Z,1.52
2019-05-05T14:32:13.389Z,1.87
2019-05-05T14:34:55.184Z,1.27
2019-05-05T14:37:30.440Z,1.50
2019-05-05T14:42:37.703Z,1.52
2019-05-05T14:45:12.585Z,1.30
2019-05-05T14:47:44.115Z,1.57
2019-05-05T14:50:15.614Z,1.40
2019-05-05T14:52:46.850Z,1.30
2019-05-05T14:55:18.306Z,1.42
2019-05-05T14:57:49.558Z,1.50
2019-05-05T15:00:24.104Z,1.60
2019-05-05T15:02:55.831Z,1.40
2019-05-05T15:05:40.707Z,1.32
2019-05-05T15:08:33.495Z,1.47
2019-05-05T15:11:06.492Z,1.62
2019-05-05T15:13:38.236Z,1.50
2019-05-05T15:16:10.762Z,1.57
2019-05-05T15:18:43.446Z,1.90
2019-05-05T15:21:14.735Z,1.30
2019-05-05T15:23:46.113Z,1.62
2019-05-05T15:26:18.323Z,1.45
2019-05-05T15:29:00.990Z,1.55
2019-05-05T15:31:23.808Z,1.70
2019-05-05T15:33:55.075Z,1.60
2019-05-05T15:36:26.379Z,1.50
2019-05-05T15:38:57.509Z,1.87
2019-05-05T15:41:28.728Z,2.15
2019-05-05T15:43:59.854Z,2.00
2019-05-05T15:46:31.192Z,2.47
2019-05-05T15:49:04.221Z,2.10
2019-05-05T15:51:37.519Z,1.65
2019-05-05T15:54:09.362Z,1.45
2019-05-05T15:57:05.570Z,1.47
2019-05-05T15:59:34.205Z,1.85
2019-05-05T16:02:05.162Z,1.90
2019-05-05T16:04:36.495Z,1.50
2019-05-05T16:07:07.800Z,2.45
2019-05-05T16:09:40.152Z,1.40
2019-05-05T16:12:11.476Z,1.80
2019-05-05T16:14:46.221Z,1.75
2019-05-05T16:17:21.854Z,1.83
2019-05-05T16:19:58.260Z,1.40
2019-05-05T16:22:34.672Z,2.00
2019-05-05T16:25:14.013Z,1.47
2019-05-05T16:27:45.795Z,1.67
2019-05-05T16:30:17.125Z,1.35
2019-05-05T16:32:48.485Z,1.25
2019-05-05T16:35:19.893Z,1.98
2019-05-05T16:37:51.315Z,1.87
2019-05-05T16:40:25.282Z,1.60
2019-05-05T16:42:55.477Z,1.85
2019-05-05T16:45:26.755Z,2.00
2019-05-05T16:47:59.946Z,2.02
2019-05-05T16:50:31.384Z,1.62
2019-05-05T16:53:04.393Z,1.85
2019-05-05T16:55:46.072Z,1.70
2019-05-05T16:58:17.881Z,2.02
2019-05-05T17:00:49.291Z,1.62
2019-05-05T17:03:21.133Z,1.42
2019-05-05T17:05:54.594Z,2.08
2019-05-05T17:08:25.697Z,2.12
2019-05-05T17:11:00.533Z,2.02
2019-05-05T17:13:33.534Z,2.08
2019-05-05T17:16:24.519Z,2.40
2019-05-05T17:19:01.676Z,2.25
2019-05-05T17:21:53.543Z,2.60
2019-05-05T17:24:40.553Z,2.67
2019-05-05T17:27:23.670Z,3.47
2019-05-05T17:29:55.609Z,3.08
2019-05-05T17:32:29.026Z,3.50
2019-05-05T17:35:03.671Z,3.80
2019-05-05T17:37:38.524Z,4.03
2019-05-05T17:40:26.826Z,4.08
2019-05-05T17:43:25.088Z,3.80
2019-05-05T17:46:09.033Z,3.62
2019-05-05T17:48:49.617Z,3.80
2019-05-05T17:51:37.579Z,3.65
2019-05-05T17:54:35.180Z,3.62
2019-05-05T17:57:07.316Z,8.05
2019-05-05T17:59:38.679Z,4.37
2019-05-05T18:02:11.499Z,5.37
2019-05-05T18:04:48.991Z,6.08
2019-05-05T18:07:31.756Z,6.85
2019-05-05T18:10:08.586Z,5.67
2019-05-05T18:12:47.927Z,6.00
2019-05-05T18:15:48.290Z,5.70
2019-05-05T18:18:31.106Z,5.05
2019-05-05T18:21:04.179Z,4.80
2019-05-05T18:23:37.387Z,39.88
2019-05-05T18:26:15.351Z,3.95
2019-05-05T18:28:50.443Z,4.10
2019-05-05T18:31:24.647Z,3.30
2019-05-05T18:33:56.741Z,3.45
2019-05-05T18:36:29.499Z,4.20
2019-05-05T18:39:04.447Z,4.10
2019-05-05T18:41:38.435Z,3.50
2019-05-05T18:44:13.448Z,3.50
2019-05-05T18:46:47.508Z,3.62
2019-05-05T18:49:23.283Z,3.87
2019-05-05T18:51:55.389Z,3.62
2019-05-05T18:54:27.484Z,3.27
2019-05-05T18:57:02.188Z,2.72
2019-05-05T18:59:44.695Z,2.15
2019-05-05T19:02:30.157Z,2.62
2019-05-05T19:05:09.566Z,2.42
2019-05-05T19:08:00.879Z,2.20
2019-05-05T19:10:35.291Z,2.70
2019-05-05T19:13:13.706Z,2.10
2019-05-05T19:15:47.942Z,3.50
2019-05-05T19:18:19.471Z,23.70
2019-05-05T19:20:54.204Z,18.52
2019-05-05T19:23:28.768Z,18.42
2019-05-05T19:26:03.919Z,2.55
2019-05-05T19:28:44.398Z,2.60
2019-05-05T19:31:09.696Z,2.47
2019-05-05T19:33:41.357Z,2.70
2019-05-05T19:36:14.114Z,2.80
2019-05-05T19:38:45.517Z,2.40
2019-05-05T19:41:18.496Z,3.02
2019-05-05T19:43:54.736Z,2.80
2019-05-05T19:46:34.655Z,2.90
2019-05-05T19:49:17.021Z,3.52
2019-05-05T19:51:49.022Z,5.97
2019-05-05T19:54:24.534Z,3.70
2019-05-05T19:56:55.951Z,4.15
2019-05-05T19:59:27.422Z,3.67
2019-05-05T20:02:03.629Z,3.85
2019-05-05T20:04:38.840Z,4.17
2019-05-05T20:07:10.709Z,4.00
2019-05-05T20:09:50.882Z,4.20
2019-05-05T20:12:22.126Z,4.55
2019-05-05T20:14:54.389Z,4.20
2019-05-05T20:17:34.600Z,5.65
2019-05-05T20:20:07.572Z,5.50
2019-05-05T20:22:39.006Z,5.72
2019-05-05T20:25:13.815Z,5.92
2019-05-05T20:27:44.850Z,6.03
2019-05-05T20:30:20.398Z,5.97
2019-05-05T20:32:56.486Z,17.52
2019-05-05T20:35:47.160Z,6.53
2019-05-05T20:38:21.166Z,14.40
2019-05-05T20:41:10.734Z,8.10
2019-05-05T20:43:44.535Z,6.10
2019-05-05T20:46:15.535Z,7.05
2019-05-05T20:48:48.784Z,6.83
2019-05-05T20:51:20.249Z,11.68
2019-05-05T20:53:57.926Z,10.15
2019-05-05T20:56:31.300Z,6.83
2019-05-05T20:59:04.068Z,6.62
2019-05-05T21:01:35.436Z,6.47
2019-05-05T21:04:06.770Z,8.50
2019-05-05T21:06:38.121Z,7.55
2019-05-05T21:09:10.094Z,7.03
2019-05-05T21:11:41.351Z,7.53
2019-05-05T21:14:14.657Z,6.17
2019-05-05T21:16:45.759Z,5.60
2019-05-05T21:19:17.303Z,6.47
2019-05-05T21:21:50.271Z,5.92
2019-05-05T21:24:21.578Z,6.37
2019-05-05T21:26:56.058Z,5.85
2019-05-05T21:29:38.448Z,6.45
2019-05-05T21:32:00.299Z,6.22
2019-05-05T21:34:34.115Z,5.92
2019-05-05T21:37:05.726Z,5.85
2019-05-05T21:39:37.207Z,6.65
2019-05-05T21:42:11.113Z,6.70
2019-05-05T21:44:44.309Z,7.67
2019-05-05T21:47:15.181Z,7.67
2019-05-05T21:49:47.089Z,9.20
2019-05-05T21:52:23.857Z,9.33
2019-05-05T21:54:56.892Z,9.13
2019-05-05T21:57:31.122Z,9.70
2019-05-05T22:00:13.951Z,42.62
2019-05-05T22:02:48.538Z,9.33
2019-05-05T22:05:21.517Z,9.88
2019-05-05T22:07:53.954Z,9.85
2019-05-05T22:10:25.408Z,10.23
2019-05-05T22:12:58.355Z,10.05
2019-05-05T22:15:29.736Z,11.22
2019-05-05T22:18:00.974Z,10.70
2019-05-05T22:20:40.752Z,12.05
2019-05-05T22:23:14.393Z,11.70
2019-05-05T22:25:55.792Z,11.73
2019-05-05T22:28:29.215Z,11.48
2019-05-05T22:31:04.672Z,11.45
2019-05-05T22:33:36.153Z,11.03
2019-05-05T22:36:07.766Z,10.00
2019-05-05T22:38:39.040Z,9.88
2019-05-05T22:41:10.289Z,9.98
2019-05-05T22:43:41.626Z,8.70
2019-05-05T22:46:14.165Z,7.50
2019-05-05T22:48:46.274Z,7.85
2019-05-05T22:51:17.650Z,7.22
2019-05-05T22:53:48.879Z,6.85
2019-05-05T22:56:21.147Z,6.50
2019-05-05T22:58:54.702Z,6.45
2019-05-05T23:01:26.109Z,5.53
2019-05-05T23:04:11.459Z,6.33
2019-05-05T23:06:45.502Z,5.25
2019-05-05T23:09:18.571Z,4.67
2019-05-05T23:11:51.496Z,4.60
2019-05-05T23:14:31.318Z,4.30
2019-05-05T23:17:20.591Z,4.05
2019-05-05T23:20:08.730Z,3.83
2019-05-05T23:22:47.479Z,3.17
2019-05-05T23:25:26.333Z,3.30
2019-05-05T23:27:58.383Z,3.65
2019-05-05T23:30:39.514Z,3.30
2019-05-05T23:33:02.492Z,3.27
2019-05-05T23:35:34.498Z,3.10
2019-05-05T23:38:05.904Z,2.83
2019-05-05T23:40:37.473Z,3.92
2019-05-05T23:43:09.377Z,3.20
2019-05-05T23:45:40.800Z,2.33
2019-05-05T23:48:14.280Z,3.12
2019-05-05T23:50:46.115Z,3.08
2019-05-05T23:53:19.355Z,3.30
2019-05-05T23:55:54.610Z,3.97
2019-05-05T23:58:26.021Z,3.52
